Aviation Digital Data Service (ADDS)

Output produced by METARs form (2329 UTC 26 February 2020)
found at http://www.aviationweather.gov/metar/data/
 
METAR text: OPKC 262225Z 00000KT 6000 NSC 20/17 Q1012 NOSIG
Conditions at: OPKC (KARACHI INTL ARP, PK) observed 2225 UTC 26 February 2020
Temperature: 20.0°C (68°F)
Dewpoint: 17.0°C (63°F) [RH = 83%]
Pressure (altimeter): 29.88 inches Hg (1012.0 mb)
Winds: calm
Visibility: 4 miles ( 6 km)
Ceiling: at least 12,000 feet AGL
Clouds: sky clear below 12,000 feet AGL
Weather: no significant weather observed at this time

METAR text: OPKC 262155Z 00000KT 6000 NSC 21/18 Q1013 NOSIG
Conditions at: OPKC (KARACHI INTL ARP, PK) observed 2155 UTC 26 February 2020
Temperature: 21.0°C (70°F)
Dewpoint: 18.0°C (64°F) [RH = 83%]
Pressure (altimeter): 29.91 inches Hg (1013.0 mb)
Winds: calm
Visibility: 4 miles ( 6 km)
Ceiling: at least 12,000 feet AGL
Clouds: sky clear below 12,000 feet AGL
Weather: no significant weather observed at this time

METAR text: OPKC 262125Z 00000KT 6000 NSC 21/18 Q1013 NOSIG
Conditions at: OPKC (KARACHI INTL ARP, PK) observed 2125 UTC 26 February 2020
Temperature: 21.0°C (70°F)
Dewpoint: 18.0°C (64°F) [RH = 83%]
Pressure (altimeter): 29.91 inches Hg (1013.0 mb)
Winds: calm
Visibility: 4 miles ( 6 km)
Ceiling: at least 12,000 feet AGL
Clouds: sky clear below 12,000 feet AGL
Weather: no significant weather observed at this time

METAR text: OPKC 262055Z 24005KT 6000 NSC 21/17 Q1013 NOSIG
Conditions at: OPKC (KARACHI INTL ARP, PK) observed 2055 UTC 26 February 2020
Temperature: 21.0°C (70°F)
Dewpoint: 17.0°C (63°F) [RH = 78%]
Pressure (altimeter): 29.91 inches Hg (1013.0 mb)
Winds: from the WSW (240 degrees) at 6 MPH (5 knots; 2.6 m/s)
Visibility: 4 miles ( 6 km)
Ceiling: at least 12,000 feet AGL
Clouds: sky clear below 12,000 feet AGL
Weather: no significant weather observed at this time

METAR text: OPKC 262025Z 00000KT 6000 NSC 21/17 Q1013 NOSIG
Conditions at: OPKC (KARACHI INTL ARP, PK) observed 2025 UTC 26 February 2020
Temperature: 21.0°C (70°F)
Dewpoint: 17.0°C (63°F) [RH = 78%]
Pressure (altimeter): 29.91 inches Hg (1013.0 mb)
Winds: calm
Visibility: 4 miles ( 6 km)
Ceiling: at least 12,000 feet AGL
Clouds: sky clear below 12,000 feet AGL
Weather: no significant weather observed at this time

METAR text: OPKC 261955Z 00000KT 6000 NSC 21/17 Q1014 NOSIG
Conditions at: OPKC (KARACHI INTL ARP, PK) observed 1955 UTC 26 February 2020
Temperature: 21.0°C (70°F)
Dewpoint: 17.0°C (63°F) [RH = 78%]
Pressure (altimeter): 29.94 inches Hg (1014.0 mb)
Winds: calm
Visibility: 4 miles ( 6 km)
Ceiling: at least 12,000 feet AGL
Clouds: sky clear below 12,000 feet AGL
Weather: no significant weather observed at this time

METAR text: OPKC 261925Z 26005KT 6000 NSC 21/16 Q1014 NOSIG
Conditions at: OPKC (KARACHI INTL ARP, PK) observed 1925 UTC 26 February 2020
Temperature: 21.0°C (70°F)
Dewpoint: 16.0°C (61°F) [RH = 73%]
Pressure (altimeter): 29.94 inches Hg (1014.0 mb)
Winds: from the W (260 degrees) at 6 MPH (5 knots; 2.6 m/s)
Visibility: 4 miles ( 6 km)
Ceiling: at least 12,000 feet AGL
Clouds: sky clear below 12,000 feet AGL
Weather: no significant weather observed at this time

METAR text: OPKC 261855Z 25004KT 6000 NSC 21/16 Q1014 NOSIG
Conditions at: OPKC (KARACHI INTL ARP, PK) observed 1855 UTC 26 February 2020
Temperature: 21.0°C (70°F)
Dewpoint: 16.0°C (61°F) [RH = 73%]
Pressure (altimeter): 29.94 inches Hg (1014.0 mb)
Winds: from the WSW (250 degrees) at 5 MPH (4 knots; 2.1 m/s)
Visibility: 4 miles ( 6 km)
Ceiling: at least 12,000 feet AGL
Clouds: sky clear below 12,000 feet AGL
Weather: no significant weather observed at this time

METAR text: OPKC 261825Z 24005KT 6000 NSC 22/17 Q1014 NOSIG
Conditions at: OPKC (KARACHI INTL ARP, PK) observed 1825 UTC 26 February 2020
Temperature: 22.0°C (72°F)
Dewpoint: 17.0°C (63°F) [RH = 73%]
Pressure (altimeter): 29.94 inches Hg (1014.0 mb)
Winds: from the WSW (240 degrees) at 6 MPH (5 knots; 2.6 m/s)
Visibility: 4 miles ( 6 km)
Ceiling: at least 12,000 feet AGL
Clouds: sky clear below 12,000 feet AGL
Weather: no significant weather observed at this time

METAR text: OPKC 261755Z 24004KT 6000 NSC 22/17 Q1014 NOSIG
Conditions at: OPKC (KARACHI INTL ARP, PK) observed 1755 UTC 26 February 2020
Temperature: 22.0°C (72°F)
Dewpoint: 17.0°C (63°F) [RH = 73%]
Pressure (altimeter): 29.94 inches Hg (1014.0 mb)
Winds: from the WSW (240 degrees) at 5 MPH (4 knots; 2.1 m/s)
Visibility: 4 miles ( 6 km)
Ceiling: at least 12,000 feet AGL
Clouds: sky clear below 12,000 feet AGL
Weather: no significant weather observed at this time

METAR text: OPKC 261725Z 25004KT 6000 NSC 22/18 Q1014 NOSIG
Conditions at: OPKC (KARACHI INTL ARP, PK) observed 1725 UTC 26 February 2020
Temperature: 22.0°C (72°F)
Dewpoint: 18.0°C (64°F) [RH = 78%]
Pressure (altimeter): 29.94 inches Hg (1014.0 mb)
Winds: from the WSW (250 degrees) at 5 MPH (4 knots; 2.1 m/s)
Visibility: 4 miles ( 6 km)
Ceiling: at least 12,000 feet AGL
Clouds: sky clear below 12,000 feet AGL
Weather: no significant weather observed at this time

METAR text: OPKC 261655Z 23005KT 6000 NSC 22/18 Q1014 NOSIG
Conditions at: OPKC (KARACHI INTL ARP, PK) observed 1655 UTC 26 February 2020
Temperature: 22.0°C (72°F)
Dewpoint: 18.0°C (64°F) [RH = 78%]
Pressure (altimeter): 29.94 inches Hg (1014.0 mb)
Winds: from the SW (230 degrees) at 6 MPH (5 knots; 2.6 m/s)
Visibility: 4 miles ( 6 km)
Ceiling: at least 12,000 feet AGL
Clouds: sky clear below 12,000 feet AGL
Weather: no significant weather observed at this time

METAR text: OPKC 261625Z 23005KT 6000 NSC 23/18 Q1014 NOSIG
Conditions at: OPKC (KARACHI INTL ARP, PK) observed 1625 UTC 26 February 2020
Temperature: 23.0°C (73°F)
Dewpoint: 18.0°C (64°F) [RH = 73%]
Pressure (altimeter): 29.94 inches Hg (1014.0 mb)
Winds: from the SW (230 degrees) at 6 MPH (5 knots; 2.6 m/s)
Visibility: 4 miles ( 6 km)
Ceiling: at least 12,000 feet AGL
Clouds: sky clear below 12,000 feet AGL
Weather: no significant weather observed at this time

METAR text: OPKC 261555Z 24007KT 6000 NSC 23/19 Q1014 NOSIG
Conditions at: OPKC (KARACHI INTL ARP, PK) observed 1555 UTC 26 February 2020
Temperature: 23.0°C (73°F)
Dewpoint: 19.0°C (66°F) [RH = 78%]
Pressure (altimeter): 29.94 inches Hg (1014.0 mb)
Winds: from the WSW (240 degrees) at 8 MPH (7 knots; 3.6 m/s)
Visibility: 4 miles ( 6 km)
Ceiling: at least 12,000 feet AGL
Clouds: sky clear below 12,000 feet AGL
Weather: no significant weather observed at this time

METAR text: OPKC 261525Z 25008KT 6000 NSC 24/19 Q1014 NOSIG
Conditions at: OPKC (KARACHI INTL ARP, PK) observed 1525 UTC 26 February 2020
Temperature: 24.0°C (75°F)
Dewpoint: 19.0°C (66°F) [RH = 74%]
Pressure (altimeter): 29.94 inches Hg (1014.0 mb)
Winds: from the WSW (250 degrees) at 9 MPH (8 knots; 4.1 m/s)
Visibility: 4 miles ( 6 km)
Ceiling: at least 12,000 feet AGL
Clouds: sky clear below 12,000 feet AGL
Weather: no significant weather observed at this time

METAR text: OPKC 261425Z 24007KT 5000 HZ NSC 25/19 Q1013 NOSIG
Conditions at: OPKC (KARACHI INTL ARP, PK) observed 1425 UTC 26 February 2020
Temperature: 25.0°C (77°F)
Dewpoint: 19.0°C (66°F) [RH = 69%]
Pressure (altimeter): 29.91 inches Hg (1013.0 mb)
Winds: from the WSW (240 degrees) at 8 MPH (7 knots; 3.6 m/s)
Visibility: 3 miles ( 5 km)
Ceiling: at least 12,000 feet AGL
Clouds: sky clear below 12,000 feet AGL
Weather: HZ  (haze)

METAR text: OPKC 261355Z 23010KT 5000 HZ NSC 25/17 Q1013 NOSIG
Conditions at: OPKC (KARACHI INTL ARP, PK) observed 1355 UTC 26 February 2020
Temperature: 25.0°C (77°F)
Dewpoint: 17.0°C (63°F) [RH = 61%]
Pressure (altimeter): 29.91 inches Hg (1013.0 mb)
Winds: from the SW (230 degrees) at 12 MPH (10 knots; 5.1 m/s)
Visibility: 3 miles ( 5 km)
Ceiling: at least 12,000 feet AGL
Clouds: sky clear below 12,000 feet AGL
Weather: HZ  (haze)

METAR text: OPKC 261330Z 23011KT 5000 HZ NSC 26/17 Q1013 NOSIG
Conditions at: OPKC (KARACHI INTL ARP, PK) observed 1330 UTC 26 February 2020
Temperature: 26.0°C (79°F)
Dewpoint: 17.0°C (63°F) [RH = 58%]
Pressure (altimeter): 29.91 inches Hg (1013.0 mb)
Winds: from the SW (230 degrees) at 13 MPH (11 knots; 5.7 m/s)
Visibility: 3 miles ( 5 km)
Ceiling: at least 12,000 feet AGL
Clouds: sky clear below 12,000 feet AGL
Weather: HZ  (haze)

METAR text: OPKC 261300Z 23005KT 5000 HZ NSC 27/17 Q1012 NOSIG
Conditions at: OPKC (KARACHI INTL ARP, PK) observed 1300 UTC 26 February 2020
Temperature: 27.0°C (81°F)
Dewpoint: 17.0°C (63°F) [RH = 54%]
Pressure (altimeter): 29.88 inches Hg (1012.0 mb)
Winds: from the SW (230 degrees) at 6 MPH (5 knots; 2.6 m/s)
Visibility: 3 miles ( 5 km)
Ceiling: at least 12,000 feet AGL
Clouds: sky clear below 12,000 feet AGL
Weather: HZ  (haze)

METAR text: OPKC 261230Z 25006KT 6000 NSC 28/17 Q1012 NOSIG
Conditions at: OPKC (KARACHI INTL ARP, PK) observed 1230 UTC 26 February 2020
Temperature: 28.0°C (82°F)
Dewpoint: 17.0°C (63°F) [RH = 51%]
Pressure (altimeter): 29.88 inches Hg (1012.0 mb)
Winds: from the WSW (250 degrees) at 7 MPH (6 knots; 3.1 m/s)
Visibility: 4 miles ( 6 km)
Ceiling: at least 12,000 feet AGL
Clouds: sky clear below 12,000 feet AGL
Weather: no significant weather observed at this time

METAR text: OPKC 261200Z 23011KT 6000 NSC 28/18 Q1012 NOSIG
Conditions at: OPKC (KARACHI INTL ARP, PK) observed 1200 UTC 26 February 2020
Temperature: 28.0°C (82°F)
Dewpoint: 18.0°C (64°F) [RH = 55%]
Pressure (altimeter): 29.88 inches Hg (1012.0 mb)
Winds: from the SW (230 degrees) at 13 MPH (11 knots; 5.7 m/s)
Visibility: 4 miles ( 6 km)
Ceiling: at least 12,000 feet AGL
Clouds: sky clear below 12,000 feet AGL
Weather: no significant weather observed at this time

METAR text: OPKC 261130Z 23012KT 7000 NSC 29/18 Q1011 NOSIG
Conditions at: OPKC (KARACHI INTL ARP, PK) observed 1130 UTC 26 February 2020
Temperature: 29.0°C (84°F)
Dewpoint: 18.0°C (64°F) [RH = 52%]
Pressure (altimeter): 29.85 inches Hg (1011.0 mb)
Winds: from the SW (230 degrees) at 14 MPH (12 knots; 6.2 m/s)
Visibility: 4 miles ( 7 km)
Ceiling: at least 12,000 feet AGL
Clouds: sky clear below 12,000 feet AGL
Weather: no significant weather observed at this time

METAR text: OPKC 261100Z 22013KT 7000 NSC 30/16 Q1011 NOSIG
Conditions at: OPKC (KARACHI INTL ARP, PK) observed 1100 UTC 26 February 2020
Temperature: 30.0°C (86°F)
Dewpoint: 16.0°C (61°F) [RH = 43%]
Pressure (altimeter): 29.85 inches Hg (1011.0 mb)
Winds: from the SW (220 degrees) at 15 MPH (13 knots; 6.7 m/s)
Visibility: 4 miles ( 7 km)
Ceiling: at least 12,000 feet AGL
Clouds: sky clear below 12,000 feet AGL
Weather: no significant weather observed at this time

METAR text: OPKC 261030Z 25007KT 7000 NSC 30/16 Q1012 NOSIG
Conditions at: OPKC (KARACHI INTL ARP, PK) observed 1030 UTC 26 February 2020
Temperature: 30.0°C (86°F)
Dewpoint: 16.0°C (61°F) [RH = 43%]
Pressure (altimeter): 29.88 inches Hg (1012.0 mb)
Winds: from the WSW (250 degrees) at 8 MPH (7 knots; 3.6 m/s)
Visibility: 4 miles ( 7 km)
Ceiling: at least 12,000 feet AGL
Clouds: sky clear below 12,000 feet AGL
Weather: no significant weather observed at this time

METAR text: OPKC 261000Z 27007KT 7000 NSC 30/16 Q1012 NOSIG
Conditions at: OPKC (KARACHI INTL ARP, PK) observed 1000 UTC 26 February 2020
Temperature: 30.0°C (86°F)
Dewpoint: 16.0°C (61°F) [RH = 43%]
Pressure (altimeter): 29.88 inches Hg (1012.0 mb)
Winds: from the W (270 degrees) at 8 MPH (7 knots; 3.6 m/s)
Visibility: 4 miles ( 7 km)
Ceiling: at least 12,000 feet AGL
Clouds: sky clear below 12,000 feet AGL
Weather: no significant weather observed at this time

METAR text: OPKC 260925Z 24008KT 7000 NSC 30/15 Q1012 NOSIG
Conditions at: OPKC (KARACHI INTL ARP, PK) observed 0925 UTC 26 February 2020
Temperature: 30.0°C (86°F)
Dewpoint: 15.0°C (59°F) [RH = 40%]
Pressure (altimeter): 29.88 inches Hg (1012.0 mb)
Winds: from the WSW (240 degrees) at 9 MPH (8 knots; 4.1 m/s)
Visibility: 4 miles ( 7 km)
Ceiling: at least 12,000 feet AGL
Clouds: sky clear below 12,000 feet AGL
Weather: no significant weather observed at this time

METAR text: OPKC 260855Z 24012KT 6000 NSC 31/16 Q1013 NOSIG
Conditions at: OPKC (KARACHI INTL ARP, PK) observed 0855 UTC 26 February 2020
Temperature: 31.0°C (88°F)
Dewpoint: 16.0°C (61°F) [RH = 40%]
Pressure (altimeter): 29.91 inches Hg (1013.0 mb)
Winds: from the WSW (240 degrees) at 14 MPH (12 knots; 6.2 m/s)
Visibility: 4 miles ( 6 km)
Ceiling: at least 12,000 feet AGL
Clouds: sky clear below 12,000 feet AGL
Weather: no significant weather observed at this time

METAR text: OPKC 260825Z 27010KT 6000 NSC 31/16 Q1013 NOSIG
Conditions at: OPKC (KARACHI INTL ARP, PK) observed 0825 UTC 26 February 2020
Temperature: 31.0°C (88°F)
Dewpoint: 16.0°C (61°F) [RH = 40%]
Pressure (altimeter): 29.91 inches Hg (1013.0 mb)
Winds: from the W (270 degrees) at 12 MPH (10 knots; 5.1 m/s)
Visibility: 4 miles ( 6 km)
Ceiling: at least 12,000 feet AGL
Clouds: sky clear below 12,000 feet AGL
Weather: no significant weather observed at this time

METAR text: OPKC 260755Z 29005KT 7000 NSC 30/15 Q1014 NOSIG
Conditions at: OPKC (KARACHI INTL ARP, PK) observed 0755 UTC 26 February 2020
Temperature: 30.0°C (86°F)
Dewpoint: 15.0°C (59°F) [RH = 40%]
Pressure (altimeter): 29.94 inches Hg (1014.0 mb)
Winds: from the WNW (290 degrees) at 6 MPH (5 knots; 2.6 m/s)
Visibility: 4 miles ( 7 km)
Ceiling: at least 12,000 feet AGL
Clouds: sky clear below 12,000 feet AGL
Weather: no significant weather observed at this time

METAR text: OPKC 260730Z 27008KT 6000 NSC 30/16 Q1014 NOSIG
Conditions at: OPKC (KARACHI INTL ARP, PK) observed 0730 UTC 26 February 2020
Temperature: 30.0°C (86°F)
Dewpoint: 16.0°C (61°F) [RH = 43%]
Pressure (altimeter): 29.94 inches Hg (1014.0 mb)
Winds: from the W (270 degrees) at 9 MPH (8 knots; 4.1 m/s)
Visibility: 4 miles ( 6 km)
Ceiling: at least 12,000 feet AGL
Clouds: sky clear below 12,000 feet AGL
Weather: no significant weather observed at this time

METAR text: OPKC 260700Z 23006KT 6000 NSC 30/16 Q1015 NOSIG
Conditions at: OPKC (KARACHI INTL ARP, PK) observed 0700 UTC 26 February 2020
Temperature: 30.0°C (86°F)
Dewpoint: 16.0°C (61°F) [RH = 43%]
Pressure (altimeter): 29.97 inches Hg (1015.0 mb)
Winds: from the SW (230 degrees) at 7 MPH (6 knots; 3.1 m/s)
Visibility: 4 miles ( 6 km)
Ceiling: at least 12,000 feet AGL
Clouds: sky clear below 12,000 feet AGL
Weather: no significant weather observed at this time

METAR text: OPKC 260630Z 27006KT 6000 NSC 28/16 Q1015 NOSIG
Conditions at: OPKC (KARACHI INTL ARP, PK) observed 0630 UTC 26 February 2020
Temperature: 28.0°C (82°F)
Dewpoint: 16.0°C (61°F) [RH = 48%]
Pressure (altimeter): 29.97 inches Hg (1015.0 mb)
Winds: from the W (270 degrees) at 7 MPH (6 knots; 3.1 m/s)
Visibility: 4 miles ( 6 km)
Ceiling: at least 12,000 feet AGL
Clouds: sky clear below 12,000 feet AGL
Weather: no significant weather observed at this time

METAR text: OPKC 260600Z 29005KT 5000 HZ NSC 27/16 Q1015 NOSIG
Conditions at: OPKC (KARACHI INTL ARP, PK) observed 0600 UTC 26 February 2020
Temperature: 27.0°C (81°F)
Dewpoint: 16.0°C (61°F) [RH = 51%]
Pressure (altimeter): 29.97 inches Hg (1015.0 mb)
Winds: from the WNW (290 degrees) at 6 MPH (5 knots; 2.6 m/s)
Visibility: 3 miles ( 5 km)
Ceiling: at least 12,000 feet AGL
Clouds: sky clear below 12,000 feet AGL
Weather: HZ  (haze)

METAR text: OPKC 260530Z 24005KT 5000 HZ NSC 26/17 Q1015 NOSIG
Conditions at: OPKC (KARACHI INTL ARP, PK) observed 0530 UTC 26 February 2020
Temperature: 26.0°C (79°F)
Dewpoint: 17.0°C (63°F) [RH = 58%]
Pressure (altimeter): 29.97 inches Hg (1015.0 mb)
Winds: from the WSW (240 degrees) at 6 MPH (5 knots; 2.6 m/s)
Visibility: 3 miles ( 5 km)
Ceiling: at least 12,000 feet AGL
Clouds: sky clear below 12,000 feet AGL
Weather: HZ  (haze)

METAR text: OPKC 260500Z 24004KT 5000 HZ FEW020 25/20 Q1015 NOSIG
Conditions at: OPKC (KARACHI INTL ARP, PK) observed 0500 UTC 26 February 2020
Temperature: 25.0°C (77°F)
Dewpoint: 20.0°C (68°F) [RH = 74%]
Pressure (altimeter): 29.97 inches Hg (1015.0 mb)
Winds: from the WSW (240 degrees) at 5 MPH (4 knots; 2.1 m/s)
Visibility: 3 miles ( 5 km)
Ceiling: at least 12,000 feet AGL
Clouds: few clouds at 2000 feet AGL
Weather: HZ  (haze)

METAR text: OPKC 260430Z 24003KT 5000 FU FEW020 24/20 Q1015 NOSIG
Conditions at: OPKC (KARACHI INTL ARP, PK) observed 0430 UTC 26 February 2020
Temperature: 24.0°C (75°F)
Dewpoint: 20.0°C (68°F) [RH = 78%]
Pressure (altimeter): 29.97 inches Hg (1015.0 mb)
Winds: from the WSW (240 degrees) at 3 MPH (3 knots; 1.5 m/s)
Visibility: 3 miles ( 5 km)
Ceiling: at least 12,000 feet AGL
Clouds: few clouds at 2000 feet AGL
Weather: FU  (smoke)

METAR text: OPKC 260400Z 27003KT 4000 FU FEW020 23/21 Q1015 BECMG 5000
Conditions at: OPKC (KARACHI INTL ARP, PK) observed 0400 UTC 26 February 2020
Temperature: 23.0°C (73°F)
Dewpoint: 21.0°C (70°F) [RH = 89%]
Pressure (altimeter): 29.97 inches Hg (1015.0 mb)
Winds: from the W (270 degrees) at 3 MPH (3 knots; 1.5 m/s)
Visibility: 2.49 miles (4.01 km)
Ceiling: at least 12,000 feet AGL
Clouds: few clouds at 2000 feet AGL
Weather: FU  (smoke)

METAR text: OPKC 260330Z 00000KT 3000 BR NSC 22/21 Q1015 BECMG 4000
Conditions at: OPKC (KARACHI INTL ARP, PK) observed 0330 UTC 26 February 2020
Temperature: 22.0°C (72°F)
Dewpoint: 21.0°C (70°F) [RH = 94%]
Pressure (altimeter): 29.97 inches Hg (1015.0 mb)
Winds: calm
Visibility: 1.86 miles (2.99 km)
Ceiling: at least 12,000 feet AGL
Clouds: sky clear below 12,000 feet AGL
Weather: BR  (mist)

METAR text: OPKC 260225Z 00000KT 2000 BR NSC 20/18 Q1014 BECMG 1000 OR LES IN FOG
Conditions at: OPKC (KARACHI INTL ARP, PK) observed 0225 UTC 26 February 2020
Temperature: 20.0°C (68°F)
Dewpoint: 18.0°C (64°F) [RH = 88%]
Pressure (altimeter): 29.94 inches Hg (1014.0 mb)
Winds: calm
Visibility: 1.24 miles (2.00 km)
Ceiling: at least 12,000 feet AGL
Clouds: sky clear below 12,000 feet AGL
Weather: BR  (mist)

METAR text: OPKC 260159Z 00000KT 2000 BR NSC 20/18 Q1013 BECMG 1000 BR
Conditions at: OPKC (KARACHI INTL ARP, PK) observed 0159 UTC 26 February 2020
Temperature: 20.0°C (68°F)
Dewpoint: 18.0°C (64°F) [RH = 88%]
Pressure (altimeter): 29.91 inches Hg (1013.0 mb)
Winds: calm
Visibility: 1.24 miles (2.00 km)
Ceiling: at least 12,000 feet AGL
Clouds: sky clear below 12,000 feet AGL
Weather: BR  (mist)

METAR text: OPKC 260125Z 00000KT 3000 BR NSC 20/18 Q1013 NOSIG
Conditions at: OPKC (KARACHI INTL ARP, PK) observed 0125 UTC 26 February 2020
Temperature: 20.0°C (68°F)
Dewpoint: 18.0°C (64°F) [RH = 88%]
Pressure (altimeter): 29.91 inches Hg (1013.0 mb)
Winds: calm
Visibility: 1.86 miles (2.99 km)
Ceiling: at least 12,000 feet AGL
Clouds: sky clear below 12,000 feet AGL
Weather: BR  (mist)

METAR text: OPKC 260055Z 00000KT 4000 FU NSC 20/18 Q1012 NOSIG
Conditions at: OPKC (KARACHI INTL ARP, PK) observed 0055 UTC 26 February 2020
Temperature: 20.0°C (68°F)
Dewpoint: 18.0°C (64°F) [RH = 88%]
Pressure (altimeter): 29.88 inches Hg (1012.0 mb)
Winds: calm
Visibility: 2.49 miles (4.01 km)
Ceiling: at least 12,000 feet AGL
Clouds: sky clear below 12,000 feet AGL
Weather: FU  (smoke)

METAR text: OPKC 260025Z 00000KT 4000 NSC 20/18 Q1012 NOSIG
Conditions at: OPKC (KARACHI INTL ARP, PK) observed 0025 UTC 26 February 2020
Temperature: 20.0°C (68°F)
Dewpoint: 18.0°C (64°F) [RH = 88%]
Pressure (altimeter): 29.88 inches Hg (1012.0 mb)
Winds: calm
Visibility: 2.49 miles (4.01 km)
Ceiling: at least 12,000 feet AGL
Clouds: sky clear below 12,000 feet AGL
Weather: no significant weather observed at this time

METAR text: OPKC 252355Z 00000KT 4000 FU NSC 20/18 Q1013 NOSIG
Conditions at: OPKC (KARACHI INTL ARP, PK) observed 2355 UTC 25 February 2020
Temperature: 20.0°C (68°F)
Dewpoint: 18.0°C (64°F) [RH = 88%]
Pressure (altimeter): 29.91 inches Hg (1013.0 mb)
Winds: calm
Visibility: 2.49 miles (4.01 km)
Ceiling: at least 12,000 feet AGL
Clouds: sky clear below 12,000 feet AGL
Weather: FU  (smoke)

METAR text: OPKC 252325Z 00000KT 4000 FU NSC 20/19 Q1013 NOSIG
Conditions at: OPKC (KARACHI INTL ARP, PK) observed 2325 UTC 25 February 2020
Temperature: 20.0°C (68°F)
Dewpoint: 19.0°C (66°F) [RH = 94%]
Pressure (altimeter): 29.91 inches Hg (1013.0 mb)
Winds: calm
Visibility: 2.49 miles (4.01 km)
Ceiling: at least 12,000 feet AGL
Clouds: sky clear below 12,000 feet AGL
Weather: FU  (smoke)

METAR text: OPKC 252255Z 07005KT 4000 FU NSC 21/19 Q1013 NOSIG
Conditions at: OPKC (KARACHI INTL ARP, PK) observed 2255 UTC 25 February 2020
Temperature: 21.0°C (70°F)
Dewpoint: 19.0°C (66°F) [RH = 88%]
Pressure (altimeter): 29.91 inches Hg (1013.0 mb)
Winds: from the ENE (70 degrees) at 6 MPH (5 knots; 2.6 m/s)
Visibility: 2.49 miles (4.01 km)
Ceiling: at least 12,000 feet AGL
Clouds: sky clear below 12,000 feet AGL
Weather: FU  (smoke)

METAR text: OPKC 252155Z 00000KT 5000 FU NSC 21/19 Q1013 NOSIG
Conditions at: OPKC (KARACHI INTL ARP, PK) observed 2155 UTC 25 February 2020
Temperature: 21.0°C (70°F)
Dewpoint: 19.0°C (66°F) [RH = 88%]
Pressure (altimeter): 29.91 inches Hg (1013.0 mb)
Winds: calm
Visibility: 3 miles ( 5 km)
Ceiling: at least 12,000 feet AGL
Clouds: sky clear below 12,000 feet AGL
Weather: FU  (smoke)

METAR text: OPKC 252125Z 25004KT 5000 FU NSC 22/19 Q1013 NOSIG
Conditions at: OPKC (KARACHI INTL ARP, PK) observed 2125 UTC 25 February 2020
Temperature: 22.0°C (72°F)
Dewpoint: 19.0°C (66°F) [RH = 83%]
Pressure (altimeter): 29.91 inches Hg (1013.0 mb)
Winds: from the WSW (250 degrees) at 5 MPH (4 knots; 2.1 m/s)
Visibility: 3 miles ( 5 km)
Ceiling: at least 12,000 feet AGL
Clouds: sky clear below 12,000 feet AGL
Weather: FU  (smoke)

METAR text: OPKC 252055Z 27004KT 5000 FU NSC 22/19 Q1013 NOSIG
Conditions at: OPKC (KARACHI INTL ARP, PK) observed 2055 UTC 25 February 2020
Temperature: 22.0°C (72°F)
Dewpoint: 19.0°C (66°F) [RH = 83%]
Pressure (altimeter): 29.91 inches Hg (1013.0 mb)
Winds: from the W (270 degrees) at 5 MPH (4 knots; 2.1 m/s)
Visibility: 3 miles ( 5 km)
Ceiling: at least 12,000 feet AGL
Clouds: sky clear below 12,000 feet AGL
Weather: FU  (smoke)

METAR text: OPKC 252025Z 00000KT 5000 FU NSC 22/19 Q1014 NOSIG
Conditions at: OPKC (KARACHI INTL ARP, PK) observed 2025 UTC 25 February 2020
Temperature: 22.0°C (72°F)
Dewpoint: 19.0°C (66°F) [RH = 83%]
Pressure (altimeter): 29.94 inches Hg (1014.0 mb)
Winds: calm
Visibility: 3 miles ( 5 km)
Ceiling: at least 12,000 feet AGL
Clouds: sky clear below 12,000 feet AGL
Weather: FU  (smoke)

METAR text: OPKC 251955Z 20004KT 5000 FU NSC 22/19 Q1014 NOSIG
Conditions at: OPKC (KARACHI INTL ARP, PK) observed 1955 UTC 25 February 2020
Temperature: 22.0°C (72°F)
Dewpoint: 19.0°C (66°F) [RH = 83%]
Pressure (altimeter): 29.94 inches Hg (1014.0 mb)
Winds: from the SSW (200 degrees) at 5 MPH (4 knots; 2.1 m/s)
Visibility: 3 miles ( 5 km)
Ceiling: at least 12,000 feet AGL
Clouds: sky clear below 12,000 feet AGL
Weather: FU  (smoke)

METAR text: OPKC 251925Z 30008KT 5000 FU NSC 22/18 Q1014 NOSIG
Conditions at: OPKC (KARACHI INTL ARP, PK) observed 1925 UTC 25 February 2020
Temperature: 22.0°C (72°F)
Dewpoint: 18.0°C (64°F) [RH = 78%]
Pressure (altimeter): 29.94 inches Hg (1014.0 mb)
Winds: from the WNW (300 degrees) at 9 MPH (8 knots; 4.1 m/s)
Visibility: 3 miles ( 5 km)
Ceiling: at least 12,000 feet AGL
Clouds: sky clear below 12,000 feet AGL
Weather: FU  (smoke)

METAR text: OPKC 251855Z 29008KT 5000 FU NSC 22/18 Q1014 NOSIG
Conditions at: OPKC (KARACHI INTL ARP, PK) observed 1855 UTC 25 February 2020
Temperature: 22.0°C (72°F)
Dewpoint: 18.0°C (64°F) [RH = 78%]
Pressure (altimeter): 29.94 inches Hg (1014.0 mb)
Winds: from the WNW (290 degrees) at 9 MPH (8 knots; 4.1 m/s)
Visibility: 3 miles ( 5 km)
Ceiling: at least 12,000 feet AGL
Clouds: sky clear below 12,000 feet AGL
Weather: FU  (smoke)

METAR text: OPKC 251825Z 00000KT 5000 FU NSC 22/19 Q1014 NOSIG
Conditions at: OPKC (KARACHI INTL ARP, PK) observed 1825 UTC 25 February 2020
Temperature: 22.0°C (72°F)
Dewpoint: 19.0°C (66°F) [RH = 83%]
Pressure (altimeter): 29.94 inches Hg (1014.0 mb)
Winds: calm
Visibility: 3 miles ( 5 km)
Ceiling: at least 12,000 feet AGL
Clouds: sky clear below 12,000 feet AGL
Weather: FU  (smoke)

METAR text: OPKC 251755Z 24006KT 5000 FU NSC 22/19 Q1014 NOSIG
Conditions at: OPKC (KARACHI INTL ARP, PK) observed 1755 UTC 25 February 2020
Temperature: 22.0°C (72°F)
Dewpoint: 19.0°C (66°F) [RH = 83%]
Pressure (altimeter): 29.94 inches Hg (1014.0 mb)
Winds: from the WSW (240 degrees) at 7 MPH (6 knots; 3.1 m/s)
Visibility: 3 miles ( 5 km)
Ceiling: at least 12,000 feet AGL
Clouds: sky clear below 12,000 feet AGL
Weather: FU  (smoke)

METAR text: OPKC 251725Z 25003KT 5000 FU NSC 22/19 Q1014 NOSIG
Conditions at: OPKC (KARACHI INTL ARP, PK) observed 1725 UTC 25 February 2020
Temperature: 22.0°C (72°F)
Dewpoint: 19.0°C (66°F) [RH = 83%]
Pressure (altimeter): 29.94 inches Hg (1014.0 mb)
Winds: from the WSW (250 degrees) at 3 MPH (3 knots; 1.5 m/s)
Visibility: 3 miles ( 5 km)
Ceiling: at least 12,000 feet AGL
Clouds: sky clear below 12,000 feet AGL
Weather: FU  (smoke)

METAR text: OPKC 251655Z 23006KT 5000 FU NSC 22/19 Q1014 NOSIG
Conditions at: OPKC (KARACHI INTL ARP, PK) observed 1655 UTC 25 February 2020
Temperature: 22.0°C (72°F)
Dewpoint: 19.0°C (66°F) [RH = 83%]
Pressure (altimeter): 29.94 inches Hg (1014.0 mb)
Winds: from the SW (230 degrees) at 7 MPH (6 knots; 3.1 m/s)
Visibility: 3 miles ( 5 km)
Ceiling: at least 12,000 feet AGL
Clouds: sky clear below 12,000 feet AGL
Weather: FU  (smoke)

METAR text: OPKC 251555Z 00000KT 5000 FU NSC 23/20 Q1014 NOSIG
Conditions at: OPKC (KARACHI INTL ARP, PK) observed 1555 UTC 25 February 2020
Temperature: 23.0°C (73°F)
Dewpoint: 20.0°C (68°F) [RH = 83%]
Pressure (altimeter): 29.94 inches Hg (1014.0 mb)
Winds: calm
Visibility: 3 miles ( 5 km)
Ceiling: at least 12,000 feet AGL
Clouds: sky clear below 12,000 feet AGL
Weather: FU  (smoke)

METAR text: OPKC 251525Z 28009KT 6000 NSC 23/20 Q1014 NOSIG
Conditions at: OPKC (KARACHI INTL ARP, PK) observed 1525 UTC 25 February 2020
Temperature: 23.0°C (73°F)
Dewpoint: 20.0°C (68°F) [RH = 83%]
Pressure (altimeter): 29.94 inches Hg (1014.0 mb)
Winds: from the W (280 degrees) at 10 MPH (9 knots; 4.6 m/s)
Visibility: 4 miles ( 6 km)
Ceiling: at least 12,000 feet AGL
Clouds: sky clear below 12,000 feet AGL
Weather: no significant weather observed at this time

METAR text: OPKC 251500Z 28009KT 6000 NSC 24/20 Q1014 NOSIG
Conditions at: OPKC (KARACHI INTL ARP, PK) observed 1500 UTC 25 February 2020
Temperature: 24.0°C (75°F)
Dewpoint: 20.0°C (68°F) [RH = 78%]
Pressure (altimeter): 29.94 inches Hg (1014.0 mb)
Winds: from the W (280 degrees) at 10 MPH (9 knots; 4.6 m/s)
Visibility: 4 miles ( 6 km)
Ceiling: at least 12,000 feet AGL
Clouds: sky clear below 12,000 feet AGL
Weather: no significant weather observed at this time

METAR text: OPKC 251425Z 21009KT 6000 NSC 24/19 Q1013 NOSIG
Conditions at: OPKC (KARACHI INTL ARP, PK) observed 1425 UTC 25 February 2020
Temperature: 24.0°C (75°F)
Dewpoint: 19.0°C (66°F) [RH = 74%]
Pressure (altimeter): 29.91 inches Hg (1013.0 mb)
Winds: from the SSW (210 degrees) at 10 MPH (9 knots; 4.6 m/s)
Visibility: 4 miles ( 6 km)
Ceiling: at least 12,000 feet AGL
Clouds: sky clear below 12,000 feet AGL
Weather: no significant weather observed at this time

METAR text: OPKC 251355Z 21009KT 6000 NSC 26/17 Q1013 NOSIG
Conditions at: OPKC (KARACHI INTL ARP, PK) observed 1355 UTC 25 February 2020
Temperature: 26.0°C (79°F)
Dewpoint: 17.0°C (63°F) [RH = 58%]
Pressure (altimeter): 29.91 inches Hg (1013.0 mb)
Winds: from the SSW (210 degrees) at 10 MPH (9 knots; 4.6 m/s)
Visibility: 4 miles ( 6 km)
Ceiling: at least 12,000 feet AGL
Clouds: sky clear below 12,000 feet AGL
Weather: no significant weather observed at this time

METAR text: OPKC 251325Z 22010KT 6000 NSC 26/17 Q1013 NOSIG
Conditions at: OPKC (KARACHI INTL ARP, PK) observed 1325 UTC 25 February 2020
Temperature: 26.0°C (79°F)
Dewpoint: 17.0°C (63°F) [RH = 58%]
Pressure (altimeter): 29.91 inches Hg (1013.0 mb)
Winds: from the SW (220 degrees) at 12 MPH (10 knots; 5.1 m/s)
Visibility: 4 miles ( 6 km)
Ceiling: at least 12,000 feet AGL
Clouds: sky clear below 12,000 feet AGL
Weather: no significant weather observed at this time

METAR text: OPKC 251255Z 21010KT 6000 NSC 27/15 Q1012 NOSIG
Conditions at: OPKC (KARACHI INTL ARP, PK) observed 1255 UTC 25 February 2020
Temperature: 27.0°C (81°F)
Dewpoint: 15.0°C (59°F) [RH = 48%]
Pressure (altimeter): 29.88 inches Hg (1012.0 mb)
Winds: from the SSW (210 degrees) at 12 MPH (10 knots; 5.1 m/s)
Visibility: 4 miles ( 6 km)
Ceiling: at least 12,000 feet AGL
Clouds: sky clear below 12,000 feet AGL
Weather: no significant weather observed at this time

METAR text: OPKC 251225Z 26010KT 6000 NSC 27/15 Q1012 NOSIG
Conditions at: OPKC (KARACHI INTL ARP, PK) observed 1225 UTC 25 February 2020
Temperature: 27.0°C (81°F)
Dewpoint: 15.0°C (59°F) [RH = 48%]
Pressure (altimeter): 29.88 inches Hg (1012.0 mb)
Winds: from the W (260 degrees) at 12 MPH (10 knots; 5.1 m/s)
Visibility: 4 miles ( 6 km)
Ceiling: at least 12,000 feet AGL
Clouds: sky clear below 12,000 feet AGL
Weather: no significant weather observed at this time

METAR text: OPKC 251155Z 22011KT 5000 HZ NSC 27/15 Q1012 NOSIG
Conditions at: OPKC (KARACHI INTL ARP, PK) observed 1155 UTC 25 February 2020
Temperature: 27.0°C (81°F)
Dewpoint: 15.0°C (59°F) [RH = 48%]
Pressure (altimeter): 29.88 inches Hg (1012.0 mb)
Winds: from the SW (220 degrees) at 13 MPH (11 knots; 5.7 m/s)
Visibility: 3 miles ( 5 km)
Ceiling: at least 12,000 feet AGL
Clouds: sky clear below 12,000 feet AGL
Weather: HZ  (haze)

Forecast for: OPKC (KARACHI INTL ARP, PK)
Text: TAF OPKC 262000Z 2700/2806 25008G18KT 6000 NSC
Forecast period: 0000 to 1700 UTC 27 February 2020
Forecast type: FROM: standard forecast or significant change
Winds: from the WSW (250 degrees) at 9 MPH (8 knots; 4.1 m/s)
gusting to 21 MPH (18 knots; 9.3 m/s)
Visibility: 4 miles (6 km)
Ceiling: unknown
Clouds: missing
Weather: no significant weather forecast for this period
Text: TEMPO 2700/2704 02005KT 1500 BR NSC
Forecast period: 0000 to 0400 UTC 27 February 2020
Forecast type: TEMPORARY: The following changes expected for less than half the time period
Winds: from the NNE (20 degrees) at 6 MPH (5 knots; 2.6 m/s)
Visibility: 0.93 miles (1.50 km)
Ceiling: unknown
Clouds: missing
Weather: BR  (mist)
Text: FM271700 28010KT 6000 NSC
Forecast period: 1700 UTC 27 February 2020 to 0600 UTC 28 February 2020
Forecast type: FROM: standard forecast or significant change
Winds: from the W (280 degrees) at 12 MPH (10 knots; 5.1 m/s)
Visibility: 4 miles (6 km)
Ceiling: unknown
Clouds: missing
Weather: no significant weather forecast for this period
Text: TEMPO 2800/2804 03005KT 2000 BR NSC
Forecast period: 0000 to 0400 UTC 28 February 2020
Forecast type: TEMPORARY: The following changes expected for less than half the time period
Winds: from the NNE (30 degrees) at 6 MPH (5 knots; 2.6 m/s)
Visibility: 1.24 miles (2.00 km)
Ceiling: unknown
Clouds: missing
Weather: BR  (mist)